Time;durP1;ratioP1;P1;durP2;ratioP2;P2;SDS_P1;SDS_P2;PMS_P1;PMS_P2;Temp;Humidity;BMP_temperature;BMP_pressure;BME280_temperature;BME280_humidity;BME280_pressure;Samples;Min_cycle;Max_cycle;Signal;HPM_P1;HPM_P2
2022/10/22 00:00:05;;;;;;;10.10;5.27;;;;;;;12.56;100.00;100431.81;5988045;28;20027;-67
2022/10/22 00:03:01;;;;;;;12.07;4.93;;;;;;;12.54;100.00;100429.34;5998680;28;20482;-66
2022/10/22 00:05:56;;;;;;;11.13;5.73;;;;;;;12.69;100.00;100445.47;6000150;28;20038;-67
2022/10/22 00:08:51;;;;;;;10.63;5.43;;;;;;;12.70;100.00;100443.63;5999693;28;20070;-66
2022/10/22 00:11:47;;;;;;;10.00;5.80;;;;;;;12.68;100.00;100437.66;5999872;28;20031;-66
2022/10/22 00:14:42;;;;;;;10.20;6.28;;;;;;;12.71;100.00;100435.50;5999902;28;20027;-66
2022/10/22 00:17:37;;;;;;;12.18;6.35;;;;;;;12.71;100.00;100445.31;6000120;28;20466;-67
2022/10/22 00:20:33;;;;;;;11.13;5.80;;;;;;;12.72;100.00;100452.31;5999529;28;20450;-66
2022/10/22 00:23:28;;;;;;;12.88;6.30;;;;;;;12.82;100.00;100474.25;5999487;28;20121;-66
2022/10/22 00:26:23;;;;;;;12.33;6.20;;;;;;;12.84;100.00;100478.41;5994180;28;20507;-66
2022/10/22 00:29:19;;;;;;;18.53;7.20;;;;;;;12.76;100.00;100470.41;5999756;28;20270;-66
2022/10/22 00:32:15;;;;;;;12.05;6.47;;;;;;;12.78;100.00;100468.41;5999346;28;20262;-66
2022/10/22 00:35:10;;;;;;;11.75;6.00;;;;;;;12.81;100.00;100453.94;5999620;28;20034;-66
2022/10/22 00:38:06;;;;;;;10.10;5.63;;;;;;;12.80;100.00;100455.78;5999629;28;20023;-66
2022/10/22 00:41:01;;;;;;;9.73;5.17;;;;;;;12.78;100.00;100456.94;5997558;28;20041;-66
2022/10/22 00:44:04;;;;;;;11.60;4.88;;;;;;;12.76;100.00;100465.09;5999505;28;20029;-66
2022/10/22 00:46:59;;;;;;;10.23;6.45;;;;;;;12.68;100.00;100449.13;5998624;28;20034;-67
2022/10/22 00:49:55;;;;;;;10.37;5.97;;;;;;;12.72;100.00;100454.97;5999426;28;20030;-66
2022/10/22 00:52:50;;;;;;;11.32;6.45;;;;;;;12.72;100.00;100474.41;5997938;28;20054;-66
2022/10/22 00:55:48;;;;;;;11.13;6.38;;;;;;;12.71;100.00;100488.72;5999017;28;20042;-66
2022/10/22 00:58:48;;;;;;;13.35;6.88;;;;;;;12.63;100.00;100464.78;5997270;28;20034;-66
2022/10/22 01:01:44;;;;;;;10.80;5.97;;;;;;;12.60;100.00;100451.78;5999037;28;20391;-66
2022/10/22 01:04:40;;;;;;;8.75;4.55;;;;;;;12.62;100.00;100463.09;5998643;28;20034;-66
2022/10/22 01:07:47;;;;;;;9.13;5.25;;;;;;;12.72;100.00;100457.63;5999028;28;20035;-66
2022/10/22 01:11:22;;;;;;;12.60;5.40;;;;;;;12.83;100.00;100481.22;5991774;28;20099;-66
2022/10/22 01:14:59;;;;;;;10.30;5.47;;;;;;;12.76;100.00;100469.59;5979976;28;20112;-67
2022/10/22 01:17:59;;;;;;;9.02;5.30;;;;;;;12.68;100.00;100438.50;5999054;28;20767;-66
2022/10/22 01:21:01;;;;;;;13.75;5.15;;;;;;;12.71;100.00;100442.66;5997524;28;20038;-66
2022/10/22 01:24:05;;;;;;;10.00;5.30;;;;;;;12.72;100.00;100445.13;5998574;28;20030;-67
2022/10/22 01:27:23;;;;;;;10.00;5.63;;;;;;;12.69;100.00;100447.31;5997916;28;20248;-66
2022/10/22 01:30:19;;;;;;;16.65;5.53;;;;;;;12.55;100.00;100438.16;5991168;28;20035;-66
2022/10/22 01:33:16;;;;;;;9.15;4.55;;;;;;;12.59;100.00;100447.47;5997106;28;21207;-67
2022/10/22 01:36:13;;;;;;;8.98;5.10;;;;;;;12.58;100.00;100456.47;5988801;28;20403;-66
2022/10/22 01:39:09;;;;;;;12.35;5.25;;;;;;;12.53;100.00;100472.88;5993684;28;20117;-66
2022/10/22 01:42:05;;;;;;;10.18;4.72;;;;;;;12.51;100.00;100471.38;5996865;28;20410;-66
2022/10/22 01:45:00;;;;;;;8.18;4.65;;;;;;;12.51;100.00;100466.91;5998783;28;20038;-66
2022/10/22 01:48:13;;;;;;;13.03;4.97;;;;;;;12.45;100.00;100466.72;5992191;28;20027;-66
2022/10/22 01:51:32;;;;;;;9.15;4.65;;;;;;;12.38;100.00;100449.78;5998596;28;20029;-66
2022/10/22 01:54:45;;;;;;;9.15;4.63;;;;;;;12.50;100.00;100470.56;5996947;28;20031;-67
2022/10/22 01:57:54;;;;;;;10.38;5.00;;;;;;;12.34;100.00;100425.31;5986611;28;20035;-66
2022/10/22 02:01:18;;;;;;;10.55;4.45;;;;;;;12.43;100.00;100440.31;5996743;28;20135;-66
2022/10/22 02:04:20;;;;;;;10.35;4.32;;;;;;;12.35;100.00;100429.66;5977148;28;20043;-66
2022/10/22 02:07:20;;;;;;;8.45;4.30;;;;;;;12.35;100.00;100428.81;5998007;28;20046;-67
2022/10/22 02:10:15;;;;;;;;;;;;;;;12.38;100.00;100441.78;5998914;28;20038;-67
2022/10/22 02:13:15;;;;;;;7.45;3.83;;;;;;;12.28;100.00;100433.97;5997357;28;19918;-66
2022/10/22 02:16:15;;;;;;;9.35;4.00;;;;;;;12.30;100.00;100442.63;5996971;28;20505;-67
2022/10/22 02:19:25;;;;;;;8.07;4.03;;;;;;;12.23;100.00;100427.50;5997263;28;20105;-67
2022/10/22 02:22:20;;;;;;;7.25;4.32;;;;;;;12.36;100.00;100435.81;5997652;28;20559;-67
2022/10/22 02:25:16;;;;;;;9.23;4.97;;;;;;;12.24;100.00;100415.84;5997344;28;20041;-67
2022/10/22 02:28:22;;;;;;;7.38;4.55;;;;;;;12.24;100.00;100448.59;5997344;28;20445;-66
2022/10/22 02:31:22;;;;;;;8.55;5.15;;;;;;;12.17;100.00;100449.41;5996518;28;20035;-67
2022/10/22 02:34:20;;;;;;;11.02;5.53;;;;;;;12.02;100.00;100435.06;6000179;28;20453;-66
2022/10/22 02:37:17;;;;;;;9.50;5.13;;;;;;;12.02;100.00;100448.34;6002258;28;20482;-67
2022/10/22 02:40:12;;;;;;;9.75;4.97;;;;;;;11.94;100.00;100449.16;5999863;28;20066;-67
2022/10/22 02:43:08;;;;;;;10.40;5.10;;;;;;;11.96;100.00;100443.69;6000524;28;20593;-67
2022/10/22 02:46:03;;;;;;;8.80;4.37;;;;;;;12.03;100.00;100458.84;6001864;28;20019;-66
2022/10/22 02:48:58;;;;;;;10.10;5.87;;;;;;;12.03;100.00;100450.84;6000601;28;20398;-67
2022/10/22 02:51:53;;;;;;;10.10;5.67;;;;;;;12.05;100.00;100458.66;6001577;28;20376;-67
2022/10/22 02:54:49;;;;;;;12.03;6.27;;;;;;;12.03;100.00;100455.34;6000946;28;20062;-66
2022/10/22 02:57:44;;;;;;;15.93;6.90;;;;;;;12.07;100.00;100462.81;6001744;28;20895;-67
2022/10/22 03:00:39;;;;;;;15.10;6.33;;;;;;;12.08;100.00;100461.84;6001190;28;20525;-67
2022/10/22 03:03:35;;;;;;;16.83;6.50;;;;;;;12.06;100.00;100471.81;6001621;28;20553;-66
2022/10/22 03:06:30;;;;;;;12.73;6.37;;;;;;;12.00;100.00;100471.59;6001876;28;20474;-66
2022/10/22 03:09:25;;;;;;;10.43;5.17;;;;;;;11.97;100.00;100477.22;5996947;28;20045;-66
2022/10/22 03:12:21;;;;;;;10.07;5.30;;;;;;;11.94;100.00;100478.38;6000945;28;20034;-67
2022/10/22 03:15:16;;;;;;;10.90;4.83;;;;;;;11.88;100.00;100484.34;6001338;28;20466;-67
2022/10/22 03:18:11;;;;;;;12.40;4.97;;;;;;;12.01;100.00;100489.22;6001411;28;20259;-67
2022/10/22 03:21:11;;;;;;;9.33;5.20;;;;;;;12.04;100.00;100486.25;6001163;28;20035;-67
2022/10/22 03:24:20;;;;;;;13.15;6.57;;;;;;;12.05;100.00;100485.22;5999134;28;20034;-67
2022/10/22 03:27:17;;;;;;;9.52;4.80;;;;;;;12.02;100.00;100480.25;6004593;28;20046;-67
2022/10/22 03:30:13;;;;;;;11.23;4.90;;;;;;;12.18;100.00;100493.56;6000769;28;20133;-67
2022/10/22 03:33:08;;;;;;;11.27;4.60;;;;;;;12.08;100.00;100479.59;6000765;28;20035;-67
2022/10/22 03:36:05;;;;;;;8.37;4.20;;;;;;;12.11;100.00;100476.63;6001291;28;20482;-67
2022/10/22 03:39:01;;;;;;;10.15;3.45;;;;;;;12.16;100.00;100487.59;6000770;28;20031;-67
2022/10/22 03:41:56;;;;;;;7.45;4.75;;;;;;;12.17;100.00;100494.59;5993776;28;20035;-67
2022/10/22 03:44:51;;;;;;;7.70;4.13;;;;;;;12.11;100.00;100488.09;5998382;28;20054;-67
2022/10/22 03:47:47;;;;;;;8.70;4.10;;;;;;;12.16;100.00;100493.75;6000906;28;20034;-66
2022/10/22 03:50:42;;;;;;;8.20;4.37;;;;;;;12.15;100.00;100476.13;6000471;28;20333;-67
2022/10/22 03:53:37;;;;;;;12.53;4.67;;;;;;;12.18;100.00;100485.59;6000267;28;20062;-67
2022/10/22 03:56:33;;;;;;;8.27;3.97;;;;;;;12.22;100.00;100497.59;6000792;28;20047;-67
2022/10/22 03:59:28;;;;;;;9.90;4.80;;;;;;;12.22;100.00;100509.06;5993204;28;20038;-67
2022/10/22 04:02:23;;;;;;;7.97;4.27;;;;;;;12.23;100.00;100512.56;5999964;28;20274;-67
2022/10/22 04:05:18;;;;;;;9.90;5.43;;;;;;;12.22;100.00;100518.88;6000243;28;20031;-67
2022/10/22 04:08:14;;;;;;;13.77;5.63;;;;;;;12.08;100.00;100499.03;6000017;28;20122;-67
2022/10/22 04:11:11;;;;;;;15.15;5.82;;;;;;;12.09;100.00;100529.13;5999247;28;20031;-67
2022/10/22 04:14:06;;;;;;;10.57;5.07;;;;;;;11.99;100.00;100507.97;5994543;28;20051;-67
2022/10/22 04:17:02;;;;;;;13.88;5.40;;;;;;;12.08;100.00;100519.47;6000489;28;20038;-67
2022/10/22 04:19:57;;;;;;;11.57;6.37;;;;;;;12.01;100.00;100516.63;6000142;28;20039;-67
2022/10/22 04:22:52;;;;;;;11.50;5.40;;;;;;;12.07;100.00;100526.59;5998865;28;20274;-67
2022/10/22 04:25:48;;;;;;;10.27;5.37;;;;;;;12.03;100.00;100529.75;5999395;28;20054;-67
2022/10/22 04:28:44;;;;;;;10.07;5.00;;;;;;;11.97;100.00;100522.41;5999881;28;20050;-67
2022/10/22 04:31:41;;;;;;;9.88;5.05;;;;;;;11.95;100.00;100527.91;5999471;28;20046;-67
2022/10/22 04:34:36;;;;;;;10.23;5.07;;;;;;;11.99;100.00;100526.56;5999787;28;20030;-67
2022/10/22 04:37:32;;;;;;;11.53;5.63;;;;;;;11.98;100.00;100526.75;5999602;28;20112;-67
2022/10/22 04:40:28;;;;;;;10.93;5.55;;;;;;;12.02;100.00;100530.72;5996299;28;20031;-67
2022/10/22 04:43:23;;;;;;;14.33;6.30;;;;;;;12.02;100.00;100533.41;5999553;28;20045;-66
2022/10/22 04:46:19;;;;;;;14.77;6.33;;;;;;;11.87;100.00;100523.38;5998290;28;20114;-67
2022/10/22 04:49:14;;;;;;;14.60;7.57;;;;;;;11.92;100.00;100533.53;5999363;28;20386;-67
2022/10/22 04:52:11;;;;;;;11.20;5.70;;;;;;;11.90;100.00;100520.38;5996894;28;20034;-67
2022/10/22 04:55:07;;;;;;;14.20;7.40;;;;;;;11.98;100.00;100521.44;5999115;28;20270;-67
2022/10/22 04:58:02;;;;;;;17.88;8.23;;;;;;;12.10;100.00;100520.13;5999257;28;20094;-67
2022/10/22 05:00:57;;;;;;;19.63;7.23;;;;;;;11.96;100.00;100502.16;5999019;28;20030;-67
2022/10/22 05:03:54;;;;;;;15.60;7.87;;;;;;;11.93;100.00;100522.72;5986735;28;20286;-67
2022/10/22 05:06:49;;;;;;;15.02;6.60;;;;;;;11.90;100.00;100528.34;5998438;28;20040;-67
2022/10/22 05:09:45;;;;;;;11.37;6.10;;;;;;;11.87;100.00;100526.03;5999271;28;20719;-67
2022/10/22 05:12:40;;;;;;;13.50;6.83;;;;;;;11.90;100.00;100530.22;5998484;28;20301;-67
2022/10/22 05:15:35;;;;;;;15.30;6.70;;;;;;;12.02;100.00;100538.72;5997796;28;20038;-67
2022/10/22 05:18:34;;;;;;;13.27;6.73;;;;;;;12.00;100.00;100551.31;5999089;28;20323;-67
2022/10/22 05:21:29;;;;;;;16.90;6.05;;;;;;;11.85;100.00;100535.97;5997570;28;20111;-67
2022/10/22 05:24:25;;;;;;;12.88;5.63;;;;;;;11.89;100.00;100552.44;5999180;28;20532;-67
2022/10/22 05:27:20;;;;;;;12.10;6.20;;;;;;;11.90;100.00;100552.28;5998919;28;20142;-67
2022/10/22 05:30:16;;;;;;;10.10;5.40;;;;;;;11.82;100.00;100538.94;5998105;28;20121;-66
2022/10/22 05:33:11;;;;;;;12.23;6.13;;;;;;;11.79;100.00;100549.91;5998748;28;20077;-67
2022/10/22 05:36:08;;;;;;;10.80;6.10;;;;;;;11.78;100.00;100539.44;5998846;28;20289;-67
2022/10/22 05:39:04;;;;;;;11.80;5.72;;;;;;;11.82;100.00;100549.56;5996978;28;20113;-67
2022/10/22 05:42:03;;;;;;;9.13;4.65;;;;;;;11.71;100.00;100546.38;5997863;28;20057;-67
2022/10/22 05:44:59;;;;;;;10.35;5.00;;;;;;;11.61;100.00;100557.06;5998269;28;20035;-67
2022/10/22 05:47:54;;;;;;;13.20;5.53;;;;;;;11.67;100.00;100561.75;5997109;28;20030;-67
2022/10/22 05:50:49;;;;;;;12.50;5.78;;;;;;;11.72;100.00;100550.69;5995918;28;20031;-67
2022/10/22 05:53:45;;;;;;;14.43;7.32;;;;;;;11.80;100.00;100567.50;5997379;28;20037;-67
2022/10/22 05:56:40;;;;;;;15.00;6.40;;;;;;;11.74;100.00;100562.81;5996644;28;20035;-67
2022/10/22 05:59:36;;;;;;;15.67;7.07;;;;;;;11.81;100.00;100563.88;5994172;28;20054;-67
2022/10/22 06:02:32;;;;;;;14.10;7.00;;;;;;;11.80;100.00;100562.19;5997733;28;20038;-67
2022/10/22 06:05:27;;;;;;;14.67;6.47;;;;;;;11.84;100.00;100576.84;5995624;28;20086;-67
2022/10/22 06:08:22;;;;;;;15.40;7.37;;;;;;;11.82;100.00;100573.50;5998536;28;20483;-67
2022/10/22 06:11:20;;;;;;;13.37;6.70;;;;;;;11.82;100.00;100565.50;5992957;28;20514;-67
2022/10/22 06:14:16;;;;;;;13.18;6.78;;;;;;;11.79;100.00;100573.81;6000277;28;20546;-67
2022/10/22 06:17:11;;;;;;;14.40;6.80;;;;;;;11.85;100.00;100581.16;5994130;28;20042;-67
2022/10/22 06:20:07;;;;;;;14.73;7.13;;;;;;;11.94;100.00;100584.69;6001619;28;20031;-67
2022/10/22 06:23:03;;;;;;;15.45;7.00;;;;;;;12.03;100.00;100590.88;6001898;28;20454;-67
2022/10/22 06:25:58;;;;;;;13.77;6.73;;;;;;;12.01;100.00;100590.22;6001507;28;20112;-67
2022/10/22 06:28:55;;;;;;;12.68;6.72;;;;;;;12.00;100.00;100586.72;6000845;28;20031;-67
2022/10/22 06:31:50;;;;;;;12.55;6.32;;;;;;;11.92;100.00;100571.56;5998773;28;20026;-67
2022/10/22 06:34:47;;;;;;;14.50;6.50;;;;;;;12.13;100.00;100604.88;5996972;28;20035;-67
2022/10/22 06:37:42;;;;;;;12.20;5.70;;;;;;;12.19;100.00;100604.25;6002027;28;20031;-68
2022/10/22 06:40:37;;;;;;;13.37;5.90;;;;;;;12.16;100.00;100594.78;5988426;28;20039;-67
2022/10/22 06:43:32;;;;;;;12.33;6.17;;;;;;;12.31;100.00;100619.75;5998802;28;20042;-67
2022/10/22 06:46:28;;;;;;;13.67;6.40;;;;;;;12.24;100.00;100616.06;5999502;28;20062;-67
2022/10/22 06:49:24;;;;;;;14.25;6.90;;;;;;;12.20;100.00;100603.28;6002369;28;20281;-67
2022/10/22 06:52:19;;;;;;;12.85;6.35;;;;;;;12.33;100.00;100633.75;6000818;28;20038;-67
2022/10/22 06:55:14;;;;;;;13.07;6.60;;;;;;;12.38;100.00;100642.06;6000703;28;20051;-67
2022/10/22 06:58:10;;;;;;;13.10;6.10;;;;;;;12.43;100.00;100638.94;6000429;28;20022;-67
2022/10/22 07:01:13;;;;;;;14.03;6.27;;;;;;;12.42;100.00;100637.25;5984638;28;20769;-67
2022/10/22 07:04:09;;;;;;;15.15;6.85;;;;;;;12.52;100.00;100651.28;5991429;28;20117;-67
2022/10/22 07:07:04;;;;;;;14.98;6.85;;;;;;;12.54;100.00;100651.94;6001103;28;20035;-67
2022/10/22 07:10:00;;;;;;;18.47;7.30;;;;;;;12.52;100.00;100649.47;5995967;28;20501;-67
2022/10/22 07:12:55;;;;;;;13.30;6.33;;;;;;;12.71;100.00;100661.66;5998839;28;20070;-67
2022/10/22 07:15:52;;;;;;;13.13;6.60;;;;;;;12.70;100.00;100656.47;6001564;28;20067;-67
2022/10/22 07:18:48;;;;;;;13.70;6.40;;;;;;;12.67;100.00;100656.81;6001330;28;20026;-67
2022/10/22 07:21:44;;;;;;;12.50;5.78;;;;;;;12.65;100.00;100654.31;6000829;28;20101;-67
2022/10/22 07:24:39;;;;;;;12.02;5.55;;;;;;;12.75;100.00;100665.66;6001004;28;20194;-67
2022/10/22 07:27:34;;;;;;;10.23;5.60;;;;;;;12.81;100.00;100680.97;6001258;28;20505;-67
2022/10/22 07:30:30;;;;;;;12.85;6.53;;;;;;;12.91;100.00;100676.34;6000288;28;20463;-67
2022/10/22 07:33:25;;;;;;;15.63;7.10;;;;;;;12.87;100.00;100664.38;6000972;28;20042;-67
2022/10/22 07:36:21;;;;;;;12.63;6.35;;;;;;;12.99;100.00;100680.88;6000630;28;20054;-67
2022/10/22 07:39:16;;;;;;;12.33;6.00;;;;;;;12.98;100.00;100690.69;6000882;28;20031;-67
2022/10/22 07:42:11;;;;;;;12.13;5.17;;;;;;;12.98;100.00;100685.38;6000049;28;20844;-67
2022/10/22 07:45:07;;;;;;;9.33;5.43;;;;;;;12.90;100.00;100677.38;6000094;28;20290;-67
2022/10/22 07:48:03;;;;;;;13.00;6.28;;;;;;;12.94;100.00;100675.19;6001144;28;20416;-67
2022/10/22 07:50:58;;;;;;;14.65;5.45;;;;;;;12.97;100.00;100688.19;6000159;28;20039;-67
2022/10/22 07:53:53;;;;;;;11.67;5.37;;;;;;;13.06;100.00;100693.38;6000441;28;20062;-67
2022/10/22 07:56:49;;;;;;;11.68;4.88;;;;;;;13.09;100.00;100690.44;6000433;28;20058;-67
2022/10/22 07:59:44;;;;;;;9.70;5.32;;;;;;;13.42;100.00;100690.47;5999416;28;20030;-67
2022/10/22 08:02:39;;;;;;;13.18;5.90;;;;;;;13.71;100.00;100690.81;5999438;28;20148;-67
2022/10/22 08:05:35;;;;;;;11.63;6.33;;;;;;;14.01;100.00;100697.31;5999528;28;20034;-67
2022/10/22 08:08:30;;;;;;;12.43;6.00;;;;;;;14.14;100.00;100702.94;6000146;28;20042;-67
2022/10/22 08:11:26;;;;;;;12.23;5.57;;;;;;;14.38;100.00;100705.59;5999334;28;20274;-67
2022/10/22 08:14:21;;;;;;;9.33;5.40;;;;;;;14.27;100.00;100709.41;5999995;28;20118;-67
2022/10/22 08:17:16;;;;;;;15.27;5.43;;;;;;;14.53;100.00;100692.38;6000393;28;20027;-67
2022/10/22 08:20:11;;;;;;;9.90;5.17;;;;;;;14.66;100.00;100687.31;5999523;28;20034;-67
2022/10/22 08:23:07;;;;;;;10.93;5.17;;;;;;;15.03;100.00;100678.66;5998950;28;20278;-68
2022/10/22 08:26:03;;;;;;;9.23;4.90;;;;;;;15.40;100.00;100700.13;5998335;28;20341;-67
2022/10/22 08:28:58;;;;;;;9.98;4.75;;;;;;;15.48;100.00;100690.25;5996527;28;20559;-67
2022/10/22 08:31:54;;;;;;;8.63;4.20;;;;;;;15.86;100.00;100698.28;5998687;28;20031;-68
2022/10/22 08:34:49;;;;;;;9.37;3.80;;;;;;;16.05;98.02;100697.78;5999132;28;20085;-68
2022/10/22 08:37:44;;;;;;;7.47;3.93;;;;;;;16.13;98.23;100700.38;6000031;28;20066;-67
2022/10/22 08:40:40;;;;;;;9.63;4.10;;;;;;;16.32;96.31;100715.06;5999026;28;20266;-68
2022/10/22 08:44:06;;;;;;;9.35;3.28;;;;;;;16.66;95.93;100712.69;5997015;28;20035;-68
2022/10/22 08:47:13;;;;;;;5.45;3.10;;;;;;;16.85;93.94;100706.78;5999328;28;20114;-67
2022/10/22 08:50:11;;;;;;;7.57;3.10;;;;;;;17.10;92.48;100712.66;5998804;28;20035;-68
2022/10/22 08:53:12;;;;;;;8.95;3.10;;;;;;;17.10;90.57;100704.63;5998725;28;20505;-68
2022/10/22 08:56:07;;;;;;;8.20;3.13;;;;;;;17.14;90.04;100716.63;5997056;28;20034;-68
2022/10/22 08:59:09;;;;;;;7.97;2.80;;;;;;;17.24;89.03;100717.16;5999515;28;20148;-67
2022/10/22 09:02:17;;;;;;;6.68;2.67;;;;;;;17.23;88.78;100712.81;5997225;28;20472;-68
2022/10/22 09:05:30;;;;;;;5.88;3.50;;;;;;;17.42;88.77;100733.63;5997822;28;20057;-68
2022/10/22 09:08:25;;;;;;;6.75;2.92;;;;;;;17.44;88.38;100712.84;5998842;28;20543;-67
2022/10/22 09:11:25;;;;;;;6.40;2.40;;;;;;;17.42;89.19;100724.78;5998084;28;20041;-67
2022/10/22 09:14:22;;;;;;;6.03;2.75;;;;;;;17.69;87.35;100708.78;5998797;28;20033;-68
2022/10/22 09:17:27;;;;;;;6.00;2.47;;;;;;;17.88;87.56;100709.16;5998993;28;20038;-68
2022/10/22 09:20:32;;;;;;;6.28;2.58;;;;;;;18.04;87.35;100711.56;5997341;28;20038;-68
2022/10/22 09:23:48;;;;;;;7.13;2.60;;;;;;;18.10;84.98;100705.44;5999282;28;20030;-67
2022/10/22 09:26:44;;;;;;;4.88;2.28;;;;;;;18.04;85.45;100709.72;5992340;28;20046;-67
2022/10/22 09:29:39;;;;;;;6.63;2.17;;;;;;;18.20;83.38;100709.44;5999212;28;20039;-67
2022/10/22 09:32:34;;;;;;;4.57;2.00;;;;;;;18.47;81.39;100721.19;5997974;28;20068;-67
2022/10/22 09:35:33;;;;;;;3.40;1.93;;;;;;;18.57;80.37;100728.91;5998535;28;20059;-67
2022/10/22 09:38:30;;;;;;;3.67;1.80;;;;;;;18.73;80.63;100732.09;5998872;28;20277;-68
2022/10/22 09:41:30;;;;;;;5.00;1.92;;;;;;;18.48;81.06;100716.69;5997911;28;20118;-67
2022/10/22 09:44:25;;;;;;;5.70;1.98;;;;;;;18.50;82.09;100710.09;6002947;28;20031;-67
2022/10/22 09:47:35;;;;;;;5.50;2.13;;;;;;;18.59;81.47;100718.81;6003085;28;20130;-67
2022/10/22 09:50:43;;;;;;;16.27;2.67;;;;;;;18.35;82.20;100728.94;6002633;28;20270;-67
2022/10/22 09:53:44;;;;;;;7.82;2.10;;;;;;;18.61;81.23;100724.81;6002523;28;20042;-67
2022/10/22 09:56:40;;;;;;;4.60;2.30;;;;;;;18.62;79.90;100735.34;6003121;28;20446;-67
2022/10/22 09:59:37;;;;;;;10.05;2.45;;;;;;;18.75;79.67;100740.78;6003042;28;20467;-67
2022/10/22 10:02:32;;;;;;;6.38;2.58;;;;;;;18.56;80.42;100736.16;6001682;28;20479;-68
2022/10/22 10:05:30;;;;;;;5.23;2.43;;;;;;;18.59;80.70;100737.63;6002978;28;20041;-67
2022/10/22 10:08:26;;;;;;;4.93;2.17;;;;;;;18.54;81.06;100753.47;6002968;28;20309;-67
2022/10/22 10:11:27;;;;;;;5.35;2.15;;;;;;;18.55;80.51;100750.59;6002228;28;20031;-67
2022/10/22 10:14:58;;;;;;;7.25;2.00;;;;;;;18.57;82.00;100770.03;6001470;28;20039;-67
2022/10/22 10:18:35;;;;;;;7.32;2.15;;;;;;;18.73;81.15;100763.50;5975624;28;20089;-68
2022/10/22 10:21:52;;;;;;;4.80;2.28;;;;;;;18.73;80.31;100768.88;6000757;28;20050;-67
2022/10/22 10:25:11;;;;;;;6.20;2.60;;;;;;;18.72;80.42;100776.16;6001956;28;20063;-68
2022/10/22 10:28:42;;;;;;;5.40;2.35;;;;;;;18.75;80.62;100775.72;6001564;28;20444;-67
2022/10/22 10:31:57;;;;;;;6.97;2.42;;;;;;;18.41;80.31;100768.44;5989441;28;20046;-67
2022/10/22 10:35:38;;;;;;;5.15;2.08;;;;;;;18.35;81.33;100766.53;6002550;28;20034;-67
2022/10/22 10:38:41;;;;;;;5.60;2.38;;;;;;;18.37;81.15;100775.22;5974592;29;20043;-67
2022/10/22 10:41:45;;;;;;;7.22;2.30;;;;;;;18.57;81.53;100780.78;5999107;28;20042;-67
2022/10/22 10:44:51;;;;;;;4.63;2.10;;;;;;;18.80;79.93;100777.84;6000937;28;20031;-67
2022/10/22 10:48:08;;;;;;;4.63;2.28;;;;;;;18.95;79.41;100779.38;5999686;28;20541;-67
2022/10/22 10:51:49;;;;;;;3.25;2.13;;;;;;;19.02;79.00;100745.28;5987388;28;20030;-67
2022/10/22 10:54:56;;;;;;;6.03;2.08;;;;;;;19.27;77.57;100760.91;5977150;28;20129;-67
2022/10/22 10:58:19;;;;;;;3.60;2.10;;;;;;;19.20;77.66;100755.50;5986319;28;20364;-67
2022/10/22 11:01:26;;;;;;;5.63;2.40;;;;;;;19.28;78.97;100774.13;6000569;28;20490;-67
2022/10/22 11:04:43;;;;;;;4.20;2.00;;;;;;;19.38;77.00;100769.22;5999360;28;20066;-67
2022/10/22 11:07:47;;;;;;;4.40;2.35;;;;;;;19.30;77.45;100779.31;5998424;28;20057;-67
2022/10/22 11:10:47;;;;;;;7.60;2.55;;;;;;;19.01;78.52;100775.88;5999703;28;20596;-67
2022/10/22 11:13:52;;;;;;;5.72;1.80;;;;;;;18.48;79.77;100762.34;5999071;28;21610;-67
2022/10/22 11:16:49;;;;;;;4.38;1.63;;;;;;;18.30;81.07;100779.72;5999187;28;20031;-67
2022/10/22 11:19:51;;;;;;;4.75;1.75;;;;;;;18.39;81.79;100775.03;5998917;28;20043;-67
2022/10/22 11:23:03;;;;;;;3.72;1.52;;;;;;;18.66;82.39;100776.09;5997372;28;20031;-66
2022/10/22 11:26:00;;;;;;;5.38;1.90;;;;;;;18.49;80.71;100778.25;5998968;28;20043;-67
2022/10/22 11:28:57;;;;;;;6.53;2.20;;;;;;;18.25;81.64;100779.47;6000329;28;20455;-67
2022/10/22 11:31:54;;;;;;;3.55;1.90;;;;;;;18.41;82.20;100775.66;5985064;28;20035;-67
2022/10/22 11:34:53;;;;;;;4.95;2.03;;;;;;;18.60;81.62;100783.06;5998491;28;20634;-67
2022/10/22 11:37:49;;;;;;;4.22;1.70;;;;;;;18.48;80.55;100770.41;5997089;28;111254;-67
2022/10/22 11:40:51;;;;;;;5.72;1.73;;;;;;;18.52;79.64;100785.91;5998552;28;20070;-68
2022/10/22 11:43:59;;;;;;;3.55;1.88;;;;;;;18.45;80.73;100782.31;6001084;28;20030;-67
2022/10/22 11:46:57;;;;;;;6.47;1.92;;;;;;;18.43;82.63;100790.56;5999976;28;20066;-67
2022/10/22 11:50:17;;;;;;;5.32;1.80;;;;;;;18.51;81.26;100791.50;6001110;28;20031;-68
2022/10/22 11:53:12;;;;;;;5.55;1.90;;;;;;;18.52;81.00;100783.22;6000505;28;20055;-68
2022/10/22 11:56:09;;;;;;;6.60;2.20;;;;;;;18.56;79.37;100789.88;6000724;28;20050;-68
2022/10/22 11:59:39;;;;;;;4.45;1.95;;;;;;;18.57;79.50;100782.63;5993314;28;20031;-67
2022/10/22 12:02:44;;;;;;;4.85;2.00;;;;;;;18.42;80.21;100774.66;5994352;28;20045;-68
2022/10/22 12:05:40;;;;;;;7.90;2.55;;;;;;;18.41;79.57;100781.03;5999537;28;20109;-67
2022/10/22 12:08:51;;;;;;;6.07;2.45;;;;;;;18.32;80.43;100782.19;6000351;28;20101;-67
2022/10/22 12:11:48;;;;;;;8.40;2.30;;;;;;;18.31;81.37;100786.75;5999792;28;20034;-67
2022/10/22 12:14:52;;;;;;;6.55;2.75;;;;;;;18.41;79.83;100775.66;5998214;28;20038;-68
2022/10/22 12:17:47;;;;;;;6.35;2.65;;;;;;;18.55;78.87;100780.16;6000259;28;20031;-68
2022/10/22 12:20:42;;;;;;;8.20;3.00;;;;;;;18.67;79.23;100775.88;5996812;28;20058;-68
2022/10/22 12:23:38;;;;;;;9.73;2.55;;;;;;;18.69;78.33;100776.53;5998879;28;20538;-68
2022/10/22 12:26:33;;;;;;;5.20;2.38;;;;;;;18.62;76.40;100775.63;5993371;28;20035;-68
2022/10/22 12:29:31;;;;;;;5.93;2.30;;;;;;;18.67;76.92;100770.50;5996536;28;20500;-67
2022/10/22 12:32:35;;;;;;;4.00;1.75;;;;;;;18.57;77.43;100756.59;5999267;28;20034;-68
2022/10/22 12:35:43;;;;;;;6.57;2.20;;;;;;;18.82;76.95;100773.91;6000021;28;20089;-68
2022/10/22 12:38:45;;;;;;;3.80;1.92;;;;;;;18.95;77.13;100755.16;5999674;28;20097;-68
2022/10/22 12:41:41;;;;;;;7.53;2.40;;;;;;;19.06;76.38;100769.06;5998487;28;20039;-68
2022/10/22 12:44:37;;;;;;;5.13;2.47;;;;;;;18.85;76.97;100772.69;5999495;28;20114;-68
2022/10/22 12:47:32;;;;;;;6.00;2.07;;;;;;;18.76;77.59;100769.34;5992809;28;20090;-67
2022/10/22 12:50:37;;;;;;;5.83;2.10;;;;;;;18.67;78.11;100759.75;5995301;28;20034;-68
2022/10/22 12:53:38;;;;;;;4.00;1.70;;;;;;;18.48;78.16;100775.75;5997840;28;20301;-66
2022/10/22 12:56:34;;;;;;;9.48;1.83;;;;;;;18.17;76.59;100773.41;5996487;28;20145;-66
2022/10/22 12:59:37;;;;;;;4.93;1.65;;;;;;;18.02;75.68;100775.34;5997630;28;20039;-66
2022/10/22 13:02:32;;;;;;;6.68;1.67;;;;;;;18.00;76.74;100764.81;5996688;28;20049;-66
2022/10/22 13:05:37;;;;;;;4.40;1.70;;;;;;;18.23;76.94;100761.91;5995569;28;20035;-66
2022/10/22 13:08:33;;;;;;;5.35;1.58;;;;;;;18.22;77.26;100761.06;5996800;28;20270;-66
2022/10/22 13:11:40;;;;;;;3.47;1.50;;;;;;;18.34;77.82;100766.75;5996694;28;20027;-66
2022/10/22 13:14:37;;;;;;;5.88;1.55;;;;;;;18.33;76.91;100763.22;5991434;28;20031;-66
2022/10/22 13:17:40;;;;;;;5.45;1.67;;;;;;;18.23;77.45;100767.28;5997995;28;20074;-66
2022/10/22 13:20:36;;;;;;;4.15;1.60;;;;;;;18.33;76.92;100765.91;5998102;28;20554;-66
2022/10/22 13:23:32;;;;;;;4.47;1.77;;;;;;;18.36;77.13;100778.13;5999301;28;20109;-66
2022/10/22 13:26:34;;;;;;;6.47;1.73;;;;;;;18.25;78.07;100759.84;5997534;28;20455;-66
2022/10/22 13:29:29;;;;;;;5.70;2.10;;;;;;;18.12;78.46;100770.47;5997198;28;20482;-66
2022/10/22 13:32:29;;;;;;;8.83;1.90;;;;;;;18.01;79.35;100753.06;5998435;28;20047;-66
2022/10/22 13:35:31;;;;;;;5.32;1.80;;;;;;;18.27;77.70;100768.53;5999177;28;20115;-66
2022/10/22 13:38:27;;;;;;;5.15;1.98;;;;;;;18.28;78.52;100767.53;5997753;28;20034;-66
2022/10/22 13:41:27;;;;;;;7.72;1.90;;;;;;;18.15;77.25;100759.38;5998070;28;20113;-66
2022/10/22 13:44:22;;;;;;;;;;;;;;;18.26;78.47;100783.00;5997329;28;20039;-66